Time;durP1;ratioP1;P1;durP2;ratioP2;P2;SDS_P1;SDS_P2;PMS_P1;PMS_P2;Temp;Humidity;BMP_temperature;BMP_pressure;BME280_temperature;BME280_humidity;BME280_pressure;Samples;Min_cycle;Max_cycle;Signal;HPM_P1;HPM_P2
2024/02/14 00:02:21;;;;;;;19.70;10.87;;;8.50;99.90;;;;;;5095203;28;20414;-73
2024/02/14 00:04:48;;;;;;;21.43;11.23;;;8.50;99.90;;;;;;5095447;28;20027;-74
2024/02/14 00:07:14;;;;;;;17.80;9.77;;;8.50;99.90;;;;;;5094692;28;20498;-72
2024/02/14 00:09:40;;;;;;;17.03;10.07;;;8.50;99.90;;;;;;5095315;28;20361;-73
2024/02/14 00:12:06;;;;;;;18.57;10.03;;;8.50;99.80;;;;;;5094849;28;20089;-69
2024/02/14 00:14:32;;;;;;;18.87;11.17;;;8.50;99.70;;;;;;5095191;28;20031;-73
2024/02/14 00:16:59;;;;;;;19.60;11.30;;;8.40;99.60;;;;;;5094842;28;20382;-73
2024/02/14 00:19:25;;;;;;;16.90;10.47;;;8.40;99.70;;;;;;5094713;28;20020;-73
2024/02/14 00:21:50;;;;;;;20.20;11.27;;;8.40;99.70;;;;;;5094502;28;20032;-71
2024/02/14 00:24:18;;;;;;;18.77;11.30;;;8.40;99.60;;;;;;5094700;28;20028;-73
2024/02/14 00:26:46;;;;;;;25.50;11.40;;;8.30;99.60;;;;;;5094603;28;20024;-73
2024/02/14 00:29:11;;;;;;;22.03;11.87;;;8.30;99.80;;;;;;5094289;28;20472;-74
2024/02/14 00:31:37;;;;;;;23.03;11.03;;;8.30;99.90;;;;;;5094586;28;20035;-73
2024/02/14 00:34:03;;;;;;;19.97;11.30;;;8.30;99.90;;;;;;5094508;28;20031;-73
2024/02/14 00:36:28;;;;;;;22.00;10.53;;;8.30;99.90;;;;;;5094399;28;20030;-72
2024/02/14 00:38:54;;;;;;;17.43;10.93;;;8.20;99.90;;;;;;5094412;28;20024;-72
2024/02/14 00:41:20;;;;;;;20.83;12.07;;;8.20;99.90;;;;;;5074409;28;20429;-73
2024/02/14 00:43:46;;;;;;;19.60;12.47;;;8.10;99.90;;;;;;5073424;28;20162;-72
2024/02/14 00:46:18;;;;;;;24.47;12.60;;;8.10;99.90;;;;;;5073934;28;20039;-72
2024/02/14 00:48:44;;;;;;;20.93;12.03;;;8.00;99.90;;;;;;5073711;28;20518;-73
2024/02/14 00:51:10;;;;;;;29.60;14.07;;;8.00;99.90;;;;;;5074064;28;20029;-72
2024/02/14 00:53:36;;;;;;;30.07;12.33;;;8.00;99.90;;;;;;5073578;28;20020;-74
2024/02/14 00:56:02;;;;;;;22.30;12.73;;;8.00;99.90;;;;;;5072323;28;20047;-73
2024/02/14 00:58:28;;;;;;;24.33;12.67;;;8.00;99.90;;;;;;5073366;28;20024;-73
2024/02/14 01:00:54;;;;;;;21.43;12.50;;;7.90;99.90;;;;;;5072217;28;20043;-74
2024/02/14 01:03:19;;;;;;;22.03;12.43;;;7.90;99.90;;;;;;5073201;28;20094;-73
2024/02/14 01:05:45;;;;;;;22.00;11.73;;;7.90;99.90;;;;;;5073078;28;20473;-73
2024/02/14 01:08:11;;;;;;;19.57;11.10;;;7.90;99.90;;;;;;5072924;28;20369;-74
2024/02/14 01:10:36;;;;;;;19.13;10.50;;;7.80;99.90;;;;;;5072844;28;20077;-73
2024/02/14 01:13:02;;;;;;;19.80;10.93;;;7.80;99.90;;;;;;5072904;28;20041;-74
2024/02/14 01:15:28;;;;;;;25.23;11.83;;;7.80;99.90;;;;;;5072942;28;20452;-73
2024/02/14 01:17:53;;;;;;;24.60;11.80;;;7.80;99.90;;;;;;5073088;28;20056;-73
2024/02/14 01:20:20;;;;;;;18.93;11.50;;;7.70;99.90;;;;;;5071964;28;20033;-74
2024/02/14 01:22:46;;;;;;;19.67;11.37;;;7.70;99.90;;;;;;5073395;28;20107;-73
2024/02/14 01:25:12;;;;;;;20.33;10.80;;;7.70;99.90;;;;;;5072913;28;20024;-74
2024/02/14 01:27:38;;;;;;;18.77;11.07;;;7.70;99.90;;;;;;5072822;28;20020;-73
2024/02/14 01:30:05;;;;;;;16.37;10.10;;;7.70;99.90;;;;;;5072678;28;20028;-72
2024/02/14 01:32:31;;;;;;;22.20;10.00;;;7.70;99.90;;;;;;5088110;28;20035;-73
2024/02/14 01:34:57;;;;;;;16.07;8.10;;;7.60;99.90;;;;;;5072929;28;20380;-74
2024/02/14 01:37:23;;;;;;;16.10;7.87;;;7.60;99.90;;;;;;5073024;28;20021;-73
2024/02/14 01:39:48;;;;;;;15.23;7.53;;;7.60;99.90;;;;;;5072843;28;20400;-73
2024/02/14 01:42:14;;;;;;;12.27;7.50;;;7.60;99.90;;;;;;5072839;28;20027;-73
2024/02/14 01:44:40;;;;;;;10.20;4.97;;;7.60;99.90;;;;;;5073087;28;20032;-74
2024/02/14 01:47:06;;;;;;;10.47;5.43;;;7.60;99.90;;;;;;5072690;28;20066;-74
2024/02/14 01:49:34;;;;;;;11.93;5.10;;;7.60;99.90;;;;;;5072276;28;20062;-74
2024/02/14 01:52:03;;;;;;;8.70;5.17;;;7.60;99.90;;;;;;5072528;28;20028;-73
2024/02/14 01:54:30;;;;;;;8.73;4.50;;;7.70;99.90;;;;;;5072580;28;20017;-74
2024/02/14 01:56:57;;;;;;;7.87;3.43;;;7.60;99.90;;;;;;5072369;28;20082;-73
2024/02/14 01:59:24;;;;;;;7.77;3.80;;;7.60;99.90;;;;;;5069797;28;20028;-73
2024/02/14 02:01:51;;;;;;;9.00;4.33;;;7.70;99.90;;;;;;5069648;28;20060;-73
2024/02/14 02:04:18;;;;;;;10.00;4.77;;;7.60;99.90;;;;;;5070404;28;20020;-74
2024/02/14 02:06:44;;;;;;;9.17;5.10;;;7.60;99.90;;;;;;5072259;28;20100;-74
2024/02/14 02:09:10;;;;;;;8.87;5.47;;;7.60;99.90;;;;;;5072076;28;20115;-72
2024/02/14 02:11:55;;;;;;;11.23;5.70;;;7.60;99.90;;;;;;5072232;28;20438;-74
2024/02/14 02:14:22;;;;;;;8.93;5.13;;;7.60;99.90;;;;;;5071749;28;20040;-73
2024/02/14 02:16:49;;;;;;;9.40;5.70;;;7.60;99.90;;;;;;5071858;28;20029;-73
2024/02/14 02:19:15;;;;;;;9.00;4.63;;;7.50;99.90;;;;;;5071521;28;20040;-73
2024/02/14 02:21:46;;;;;;;12.77;4.97;;;7.50;99.90;;;;;;5071664;28;20546;-73
2024/02/14 02:24:11;;;;;;;8.40;3.20;;;7.50;99.90;;;;;;5071899;28;20029;-74
2024/02/14 02:26:37;;;;;;;5.93;3.70;;;7.40;99.80;;;;;;5072174;28;20024;-72
2024/02/14 02:29:04;;;;;;;4.63;1.90;;;7.40;99.40;;;;;;5072063;28;20021;-74
2024/02/14 02:31:30;;;;;;;8.90;3.80;;;7.40;99.30;;;;;;5072223;28;20055;-73
2024/02/14 02:33:56;;;;;;;5.73;3.50;;;7.40;98.30;;;;;;5072287;28;20103;-73
2024/02/14 02:36:24;;;;;;;7.80;3.63;;;7.40;98.30;;;;;;5071581;28;20429;-73
2024/02/14 02:38:50;;;;;;;6.40;2.60;;;7.40;98.20;;;;;;5071812;28;20028;-73
2024/02/14 02:41:16;;;;;;;5.77;3.47;;;7.40;97.80;;;;;;5071802;28;20424;-73
2024/02/14 02:43:42;;;;;;;8.67;3.83;;;7.40;97.90;;;;;;5072014;28;20029;-74
2024/02/14 02:46:09;;;;;;;10.23;5.30;;;7.30;98.00;;;;;;5071801;28;20021;-73
2024/02/14 02:48:36;;;;;;;14.07;6.00;;;7.30;98.10;;;;;;5071687;28;20076;-73
2024/02/14 02:51:01;;;;;;;16.33;6.10;;;7.30;98.30;;;;;;5071799;28;20498;-73
2024/02/14 02:53:27;;;;;;;11.50;5.63;;;7.30;98.50;;;;;;5070013;28;20094;-71
2024/02/14 02:55:54;;;;;;;14.13;6.23;;;7.20;98.70;;;;;;5071944;28;20445;-73
2024/02/14 02:58:21;;;;;;;10.90;5.97;;;7.20;98.70;;;;;;5071937;28;20027;-74
2024/02/14 03:00:49;;;;;;;9.10;5.43;;;7.20;98.90;;;;;;5072067;28;20491;-74
2024/02/14 03:03:16;;;;;;;10.17;5.77;;;7.20;98.80;;;;;;5071807;28;20021;-74
2024/02/14 03:05:44;;;;;;;12.67;5.90;;;7.10;98.90;;;;;;5072165;28;20124;-73
2024/02/14 03:08:13;;;;;;;10.80;5.97;;;7.10;98.60;;;;;;5071492;28;20070;-72
2024/02/14 03:10:40;;;;;;;10.53;5.37;;;7.00;98.70;;;;;;5071910;28;20646;-72
2024/02/14 03:13:09;;;;;;;12.67;5.10;;;6.90;98.70;;;;;;5071928;28;20051;-73
2024/02/14 03:15:35;;;;;;;8.13;4.97;;;6.90;98.80;;;;;;5072488;28;20107;-73
2024/02/14 03:18:01;;;;;;;10.23;5.57;;;6.90;98.90;;;;;;5071994;28;20033;-72
2024/02/14 03:20:29;;;;;;;10.57;5.20;;;6.80;98.80;;;;;;5071894;28;20040;-72
2024/02/14 03:22:54;;;;;;;8.97;5.63;;;6.80;99.00;;;;;;5071211;28;20480;-73
2024/02/14 03:25:20;;;;;;;13.00;5.63;;;6.70;99.20;;;;;;5071656;28;20025;-73
2024/02/14 03:27:52;;;;;;;14.37;5.57;;;6.70;99.20;;;;;;5071833;28;20471;-73
2024/02/14 03:30:20;;;;;;;12.13;4.70;;;6.70;99.30;;;;;;5072223;28;20471;-73
2024/02/14 03:32:46;;;;;;;16.73;4.90;;;6.70;99.40;;;;;;5075545;28;20369;-73
2024/02/14 03:35:16;;;;;;;9.67;4.53;;;6.70;99.30;;;;;;5075409;28;20114;-73
2024/02/14 03:37:43;;;;;;;8.40;4.77;;;6.60;99.30;;;;;;5075045;28;20031;-72
2024/02/14 03:40:10;;;;;;;10.37;3.93;;;6.60;99.40;;;;;;5075405;28;20023;-73
2024/02/14 03:42:36;;;;;;;7.30;3.83;;;6.60;99.40;;;;;;5075387;28;20058;-73
2024/02/14 03:45:05;;;;;;;5.80;3.40;;;6.60;99.30;;;;;;5074862;28;20426;-71
2024/02/14 03:47:34;;;;;;;8.47;3.00;;;6.50;99.30;;;;;;5075221;28;20074;-74
2024/02/14 03:50:01;;;;;;;5.57;2.50;;;6.50;99.30;;;;;;5075090;28;20048;-73
2024/02/14 03:52:27;;;;;;;3.10;1.70;;;6.50;99.30;;;;;;5074984;28;20574;-74
2024/02/14 03:54:53;;;;;;;3.17;1.73;;;6.50;99.20;;;;;;5074947;28;20103;-73
2024/02/14 03:57:19;;;;;;;4.57;2.00;;;6.60;99.20;;;;;;5074980;28;20526;-73
2024/02/14 03:59:45;;;;;;;8.50;2.70;;;6.60;99.10;;;;;;5074773;28;20033;-72
2024/02/14 04:02:11;;;;;;;5.60;2.63;;;6.60;99.00;;;;;;5074975;28;20020;-73
2024/02/14 04:04:39;;;;;;;7.47;3.13;;;6.70;99.00;;;;;;5073646;28;20032;-74
2024/02/14 04:07:05;;;;;;;8.37;3.00;;;6.70;99.00;;;;;;5074830;28;20073;-73
2024/02/14 04:09:33;;;;;;;5.23;3.00;;;6.70;98.90;;;;;;5074223;28;20037;-72
2024/02/14 04:11:58;;;;;;;5.93;3.17;;;6.70;98.90;;;;;;5072158;28;20047;-72
2024/02/14 04:14:25;;;;;;;5.97;2.43;;;6.80;98.80;;;;;;5070827;28;20024;-74
2024/02/14 04:16:50;;;;;;;7.43;3.13;;;6.70;98.80;;;;;;5074699;28;20461;-73
2024/02/14 04:19:17;;;;;;;6.13;3.00;;;6.70;98.80;;;;;;5074671;28;20028;-74
2024/02/14 04:21:43;;;;;;;6.07;3.20;;;6.70;98.80;;;;;;5074162;28;20465;-73
2024/02/14 04:24:09;;;;;;;7.87;3.10;;;6.60;99.00;;;;;;5074126;28;20112;-73
2024/02/14 04:26:35;;;;;;;8.33;3.30;;;6.60;99.10;;;;;;5074445;28;20111;-74
2024/02/14 04:29:01;;;;;;;8.23;3.20;;;6.60;99.30;;;;;;5074214;28;20025;-74
2024/02/14 04:31:27;;;;;;;7.83;2.97;;;6.60;99.40;;;;;;5074411;28;20040;-74
2024/02/14 04:33:53;;;;;;;5.47;2.77;;;6.60;99.60;;;;;;5073023;28;20024;-74
2024/02/14 04:36:25;;;;;;;5.33;3.17;;;6.60;99.50;;;;;;5074348;28;20024;-74
2024/02/14 04:38:52;;;;;;;7.70;3.30;;;6.60;99.40;;;;;;5074409;28;20376;-72
2024/02/14 04:41:18;;;;;;;10.10;3.17;;;6.50;99.20;;;;;;5073612;28;20028;-73
2024/02/14 04:43:44;;;;;;;5.20;2.60;;;6.50;99.30;;;;;;5074468;28;20016;-74
2024/02/14 04:46:09;;;;;;;10.53;2.70;;;6.50;99.30;;;;;;5074052;28;20032;-74
2024/02/14 04:48:39;;;;;;;7.37;2.80;;;6.50;99.30;;;;;;5073720;28;20044;-72
2024/02/14 04:51:05;;;;;;;12.43;3.60;;;6.50;99.20;;;;;;5074194;28;20392;-73
2024/02/14 04:53:31;;;;;;;9.37;3.57;;;6.50;99.30;;;;;;5073894;28;20021;-74
2024/02/14 04:55:57;;;;;;;5.70;2.77;;;6.40;99.50;;;;;;5072824;28;20373;-74
2024/02/14 04:58:23;;;;;;;11.87;3.10;;;6.40;99.50;;;;;;5073723;28;20031;-73
2024/02/14 05:00:49;;;;;;;5.70;2.83;;;6.40;99.40;;;;;;5073386;28;20389;-73
2024/02/14 05:03:15;;;;;;;8.47;2.77;;;6.40;99.10;;;;;;5073840;28;20103;-73
2024/02/14 05:05:41;;;;;;;4.47;2.57;;;6.40;98.90;;;;;;5080245;28;20128;-72
2024/02/14 05:08:07;;;;;;;5.40;2.90;;;6.30;98.80;;;;;;5075117;28;20032;-74
2024/02/14 05:10:33;;;;;;;7.13;2.87;;;6.30;98.70;;;;;;5072206;28;20032;-73
2024/02/14 05:12:59;;;;;;;5.63;3.00;;;6.20;98.70;;;;;;5072379;28;20139;-73
2024/02/14 05:15:25;;;;;;;6.83;2.93;;;6.20;98.80;;;;;;5072228;28;20388;-73
2024/02/14 05:17:51;;;;;;;5.23;2.90;;;6.10;98.80;;;;;;5072091;28;20033;-73
2024/02/14 05:20:17;;;;;;;9.33;3.70;;;6.10;98.90;;;;;;5073070;28;20174;-73
2024/02/14 05:22:43;;;;;;;6.40;3.30;;;6.00;99.00;;;;;;5072996;28;20025;-73
2024/02/14 05:25:09;;;;;;;9.47;3.87;;;6.00;99.20;;;;;;5073092;28;20035;-72
2024/02/14 05:27:38;;;;;;;8.53;3.37;;;5.90;99.30;;;;;;5072615;28;20024;-72
2024/02/14 05:30:09;;;;;;;12.60;4.47;;;5.90;99.20;;;;;;5072939;28;20028;-73
2024/02/14 05:32:35;;;;;;;20.93;5.03;;;5.80;99.40;;;;;;5072942;28;20071;-72
2024/02/14 05:35:01;;;;;;;14.70;4.50;;;5.80;99.70;;;;;;5073040;28;20059;-73
2024/02/14 05:37:27;;;;;;;16.30;4.77;;;5.80;99.90;;;;;;5072871;28;20047;-72
2024/02/14 05:39:54;;;;;;;15.77;4.93;;;5.80;99.90;;;;;;5071364;28;20024;-71
2024/02/14 05:42:20;;;;;;;15.67;5.07;;;5.80;99.90;;;;;;5072711;28;20029;-73
2024/02/14 05:44:45;;;;;;;16.43;4.80;;;5.80;99.90;;;;;;5072465;28;20031;-73
2024/02/14 05:47:11;;;;;;;12.27;4.90;;;5.80;99.90;;;;;;5072725;28;20093;-71
2024/02/14 05:49:39;;;;;;;10.03;4.87;;;5.80;99.90;;;;;;5072526;28;20048;-73
2024/02/14 05:52:06;;;;;;;22.67;14.00;;;5.70;99.90;;;;;;5072564;28;20032;-72
2024/02/14 05:54:31;;;;;;;25.77;15.83;;;5.80;99.90;;;;;;5071956;28;20035;-71
2024/02/14 05:56:57;;;;;;;23.73;15.93;;;5.80;99.90;;;;;;5072536;28;20032;-72
2024/02/14 05:59:23;;;;;;;16.13;10.23;;;5.80;99.90;;;;;;5071480;28;20101;-69
2024/02/14 06:01:49;;;;;;;10.37;6.50;;;5.80;99.90;;;;;;5070308;28;20085;-72
2024/02/14 06:04:14;;;;;;;7.93;4.63;;;5.90;99.90;;;;;;5068895;28;20058;-70
2024/02/14 06:06:40;;;;;;;11.17;3.60;;;5.90;99.90;;;;;;5067865;28;20051;-72
2024/02/14 06:09:09;;;;;;;6.40;2.90;;;5.90;99.90;;;;;;5071112;28;20027;-73
2024/02/14 06:11:38;;;;;;;6.90;2.60;;;6.00;99.90;;;;;;5072681;28;20039;-70
2024/02/14 06:14:06;;;;;;;5.97;2.30;;;6.00;99.90;;;;;;5072139;28;20045;-73
2024/02/14 06:16:32;;;;;;;3.40;1.93;;;6.00;99.90;;;;;;5071090;28;20485;-70
2024/02/14 06:18:58;;;;;;;5.67;2.07;;;6.00;99.90;;;;;;5072250;28;20058;-73
2024/02/14 06:21:25;;;;;;;8.10;2.00;;;6.10;99.90;;;;;;5072164;28;20442;-72
2024/02/14 06:23:51;;;;;;;10.63;2.00;;;6.10;99.90;;;;;;5072296;28;20012;-73
2024/02/14 06:26:17;;;;;;;13.47;2.37;;;6.20;99.90;;;;;;5072179;28;20059;-74
2024/02/14 06:28:44;;;;;;;37.57;3.47;;;6.20;99.90;;;;;;5072340;28;20024;-72
2024/02/14 06:31:09;;;;;;;44.67;4.67;;;6.20;99.90;;;;;;5072247;28;20103;-72
2024/02/14 06:33:35;;;;;;;49.20;4.33;;;6.20;99.90;;;;;;5072209;28;20107;-73
2024/02/14 06:36:02;;;;;;;27.90;3.33;;;6.30;99.90;;;;;;5072067;28;20495;-71
2024/02/14 06:38:27;;;;;;;19.20;3.53;;;6.30;99.90;;;;;;5072647;28;20021;-72
2024/02/14 06:40:53;;;;;;;7.23;3.20;;;6.30;99.90;;;;;;5071175;28;20028;-73
2024/02/14 06:43:19;;;;;;;8.57;3.10;;;6.30;99.90;;;;;;5072241;28;20031;-73
2024/02/14 06:45:45;;;;;;;13.60;3.93;;;6.30;99.90;;;;;;5072288;28;20028;-72
2024/02/14 06:48:11;;;;;;;12.60;3.10;;;6.40;99.90;;;;;;5072338;28;20024;-73
2024/02/14 06:50:37;;;;;;;8.47;3.63;;;6.50;99.90;;;;;;5070971;28;20098;-73
2024/02/14 06:53:03;;;;;;;8.27;3.40;;;6.50;99.90;;;;;;5072012;28;20040;-73
2024/02/14 06:55:31;;;;;;;10.87;3.30;;;6.50;99.90;;;;;;5072361;28;20031;-73
2024/02/14 06:57:58;;;;;;;23.10;3.63;;;6.50;99.90;;;;;;5072338;28;20452;-74
2024/02/14 07:00:24;;;;;;;19.63;3.60;;;6.60;99.90;;;;;;5071684;28;20389;-72
2024/02/14 07:02:49;;;;;;;27.03;4.23;;;6.60;99.90;;;;;;5065419;28;20032;-72
2024/02/14 07:05:15;;;;;;;40.77;6.80;;;6.60;99.90;;;;;;5073495;28;20013;-73
2024/02/14 07:07:41;;;;;;;28.77;6.43;;;6.70;99.90;;;;;;5075745;28;20365;-72
2024/02/14 07:10:08;;;;;;;37.13;6.17;;;6.70;99.90;;;;;;5075825;28;20029;-73
2024/02/14 07:12:35;;;;;;;29.97;7.07;;;6.70;99.90;;;;;;5053869;28;20063;-72
2024/02/14 07:15:04;;;;;;;35.03;6.60;;;6.70;99.90;;;;;;5073019;28;20055;-69
2024/02/14 07:17:29;;;;;;;32.47;6.23;;;6.60;99.90;;;;;;5074287;28;20032;-72
2024/02/14 07:19:55;;;;;;;25.97;5.70;;;6.60;99.90;;;;;;5054290;28;20461;-72
2024/02/14 07:22:21;;;;;;;20.80;4.80;;;6.60;99.90;;;;;;5054640;28;20456;-72
2024/02/14 07:24:47;;;;;;;27.77;4.50;;;6.70;99.90;;;;;;5054775;28;20092;-72
2024/02/14 07:27:13;;;;;;;14.40;3.73;;;6.70;99.90;;;;;;5055164;28;20033;-70
2024/02/14 07:29:39;;;;;;;26.17;4.57;;;6.80;99.90;;;;;;5055350;28;20028;-72
2024/02/14 07:32:06;;;;;;;14.53;4.10;;;6.90;99.90;;;;;;5055216;28;20037;-73
2024/02/14 07:34:32;;;;;;;23.20;4.47;;;6.90;99.90;;;;;;5055740;28;20504;-73
2024/02/14 07:36:57;;;;;;;11.17;3.47;;;7.00;99.90;;;;;;5055395;28;20033;-71
2024/02/14 07:39:23;;;;;;;17.70;3.80;;;7.10;99.90;;;;;;5055040;28;20106;-73
2024/02/14 07:41:49;;;;;;;6.50;2.87;;;7.10;99.90;;;;;;5055025;28;20044;-72
2024/02/14 07:44:15;;;;;;;7.90;2.97;;;7.20;99.90;;;;;;5054399;28;20388;-75
2024/02/14 07:46:40;;;;;;;4.77;2.57;;;7.30;99.90;;;;;;5054095;28;20031;-77
2024/02/14 07:49:06;;;;;;;6.83;2.50;;;7.40;99.90;;;;;;5054270;28;20052;-74
2024/02/14 07:51:37;;;;;;;20.47;3.30;;;7.40;99.90;;;;;;5071828;28;20021;-75
2024/02/14 07:54:04;;;;;;;12.10;3.70;;;7.50;99.90;;;;;;5074214;28;20036;-76
2024/02/14 07:56:30;;;;;;;11.37;3.20;;;7.60;99.90;;;;;;5074708;28;20029;-73
2024/02/14 07:58:55;;;;;;;10.73;3.90;;;7.70;99.90;;;;;;5074494;28;20096;-73
2024/02/14 08:01:21;;;;;;;15.73;4.70;;;7.70;99.90;;;;;;5074479;28;20131;-73
2024/02/14 08:03:47;;;;;;;22.17;4.60;;;7.80;99.90;;;;;;5068891;28;20025;-74
2024/02/14 08:06:13;;;;;;;18.33;5.03;;;7.90;99.90;;;;;;5069323;28;20079;-73
2024/02/14 08:08:39;;;;;;;15.57;5.07;;;7.90;99.90;;;;;;5065366;28;20063;-73
2024/02/14 08:11:05;;;;;;;17.10;5.07;;;8.00;99.90;;;;;;5068670;28;20139;-74
2024/02/14 08:13:31;;;;;;;21.90;5.60;;;8.00;99.90;;;;;;5072203;28;20094;-74
2024/02/14 08:15:58;;;;;;;28.60;5.40;;;8.00;99.90;;;;;;5073315;28;20020;-75
2024/02/14 08:18:24;;;;;;;19.43;6.87;;;8.00;99.90;;;;;;5073867;28;20048;-74
2024/02/14 08:20:50;;;;;;;21.47;5.60;;;8.00;99.90;;;;;;5073054;28;20492;-75
2024/02/14 08:23:16;;;;;;;22.93;5.80;;;8.10;99.90;;;;;;5073618;28;20039;-74
2024/02/14 08:25:42;;;;;;;21.57;5.80;;;8.10;99.90;;;;;;5072388;28;20423;-76
2024/02/14 08:28:09;;;;;;;20.20;5.07;;;8.10;99.90;;;;;;5072004;28;20021;-74
2024/02/14 08:30:34;;;;;;;12.77;5.17;;;8.10;99.90;;;;;;5072185;28;20111;-75
2024/02/14 08:33:00;;;;;;;25.63;5.57;;;8.10;99.90;;;;;;5072028;28;20119;-74
2024/02/14 08:35:26;;;;;;;20.60;5.10;;;8.10;99.90;;;;;;5071677;28;20051;-71
2024/02/14 08:37:51;;;;;;;24.03;6.70;;;8.10;99.90;;;;;;5070736;28;20434;-75
2024/02/14 08:40:17;;;;;;;20.77;5.60;;;8.20;99.90;;;;;;5072879;28;20017;-75
2024/02/14 08:42:43;;;;;;;31.80;5.83;;;8.20;99.90;;;;;;5072756;28;20031;-75
2024/02/14 08:45:10;;;;;;;27.00;6.17;;;8.20;99.90;;;;;;5074176;28;20036;-74
2024/02/14 08:47:36;;;;;;;20.13;5.77;;;8.30;99.90;;;;;;5074112;28;20021;-74
2024/02/14 08:50:03;;;;;;;24.20;5.93;;;8.30;99.90;;;;;;5064106;22;20049;-74
2024/02/14 08:52:29;;;;;;;17.90;5.40;;;8.40;99.90;;;;;;5052812;28;20036;-75
2024/02/14 08:54:55;;;;;;;15.80;5.33;;;8.50;99.90;;;;;;5052566;28;20027;-74
2024/02/14 08:57:20;;;;;;;13.93;5.23;;;8.50;99.90;;;;;;5053105;28;20061;-74
2024/02/14 08:59:48;;;;;;;21.60;5.20;;;8.60;99.90;;;;;;5053393;28;20032;-76
2024/02/14 09:02:14;;;;;;;16.67;5.60;;;8.70;99.90;;;;;;5053714;28;20036;-74
2024/02/14 09:04:44;;;;;;;19.50;5.37;;;8.80;99.90;;;;;;5053732;28;20025;-75
2024/02/14 09:07:10;;;;;;;18.97;4.77;;;8.80;99.90;;;;;;5053851;28;20483;-74
2024/02/14 09:09:37;;;;;;;27.10;5.43;;;8.90;99.90;;;;;;5053454;28;20052;-73
2024/02/14 09:12:04;;;;;;;9.10;4.70;;;9.00;99.90;;;;;;5053576;28;20083;-74
2024/02/14 09:14:30;;;;;;;6.50;3.67;;;9.10;99.90;;;;;;5053366;28;20100;-75
2024/02/14 09:16:56;;;;;;;12.70;4.03;;;9.10;99.70;;;;;;5053845;28;20436;-74
2024/02/14 09:19:23;;;;;;;12.00;3.83;;;9.20;99.40;;;;;;5053424;28;20445;-76
2024/02/14 09:21:49;;;;;;;10.20;4.03;;;9.20;99.20;;;;;;5053656;28;20112;-75
2024/02/14 09:24:15;;;;;;;16.70;5.27;;;9.30;99.20;;;;;;5053525;28;20104;-75
2024/02/14 09:26:40;;;;;;;20.80;4.47;;;9.30;99.20;;;;;;5053191;28;20033;-74
2024/02/14 09:29:06;;;;;;;13.20;4.20;;;9.40;99.20;;;;;;5052522;28;20079;-76
2024/02/14 09:31:32;;;;;;;7.90;3.50;;;9.50;99.00;;;;;;5053253;28;20401;-75
2024/02/14 09:33:58;;;;;;;10.53;3.23;;;9.50;98.40;;;;;;5053328;28;20033;-76
2024/02/14 09:36:24;;;;;;;17.33;4.43;;;9.60;98.40;;;;;;5053512;28;20096;-76
2024/02/14 09:38:51;;;;;;;10.77;3.33;;;9.60;98.40;;;;;;5053365;28;20037;-76
2024/02/14 09:41:29;;;;;;;12.43;3.37;;;9.70;98.10;;;;;;5053248;28;20086;-75
2024/02/14 09:43:55;;;;;;;10.50;3.50;;;9.70;97.70;;;;;;5052651;28;20032;-75
2024/02/14 09:46:26;;;;;;;6.63;3.13;;;9.90;97.50;;;;;;5053027;28;20021;-75
2024/02/14 09:48:53;;;;;;;12.37;2.73;;;9.90;97.80;;;;;;5052950;28;20405;-75
2024/02/14 09:51:19;;;;;;;5.50;2.40;;;10.00;97.60;;;;;;5052876;28;20279;-74
2024/02/14 09:53:46;;;;;;;6.40;3.03;;;10.10;96.90;;;;;;5053023;28;20023;-76
2024/02/14 09:56:13;;;;;;;5.17;2.70;;;10.20;96.80;;;;;;5053141;28;20021;-75
2024/02/14 09:58:40;;;;;;;5.53;2.87;;;10.20;96.60;;;;;;5053004;28;20040;-75
2024/02/14 10:01:06;;;;;;;13.67;3.40;;;10.30;96.40;;;;;;5051866;28;20033;-75
2024/02/14 10:03:33;;;;;;;9.30;5.50;;;10.40;96.20;;;;;;5052871;28;20033;-74
2024/02/14 10:05:59;;;;;;;6.57;3.60;;;10.50;96.40;;;;;;5052991;28;20025;-74
2024/02/14 10:08:26;;;;;;;7.93;2.90;;;10.60;96.40;;;;;;5052918;28;20029;-75
2024/02/14 10:10:52;;;;;;;6.40;3.23;;;10.60;95.80;;;;;;5053067;28;20031;-75
2024/02/14 10:13:18;;;;;;;7.07;2.87;;;10.70;95.60;;;;;;5052679;28;20045;-73
2024/02/14 10:15:44;;;;;;;5.78;2.50;;;10.80;96.00;;;;;;5053038;28;20096;-75
2024/02/14 10:18:09;;;;;;;6.20;2.20;;;10.90;95.70;;;;;;5052910;28;20049;-75
2024/02/14 10:20:43;;;;;;;3.95;1.98;;;11.00;95.40;;;;;;5052627;28;20021;-75
2024/02/14 10:23:11;;;;;;;3.27;1.87;;;11.00;95.70;;;;;;5052923;28;20025;-76
2024/02/14 10:25:38;;;;;;;5.13;2.17;;;11.10;97.10;;;;;;5052518;28;20021;-75
2024/02/14 10:28:08;;;;;;;4.60;2.10;;;11.20;97.60;;;;;;5052677;28;20100;-75
2024/02/14 10:30:41;;;;;;;5.50;2.10;;;11.30;97.40;;;;;;5052698;28;20044;-76
2024/02/14 10:33:07;;;;;;;5.10;2.10;;;11.30;97.60;;;;;;5052781;28;20065;-75
2024/02/14 10:35:36;;;;;;;4.35;1.77;;;11.40;97.30;;;;;;5052758;28;20021;-76
2024/02/14 10:38:03;;;;;;;5.07;1.98;;;11.50;97.30;;;;;;5051571;28;20036;-74
2024/02/14 10:40:29;;;;;;;4.30;2.40;;;11.60;97.90;;;;;;5070441;28;20021;-76
2024/02/14 10:42:58;;;;;;;6.55;2.30;;;11.70;98.30;;;;;;5056693;28;20358;-75
2024/02/14 10:45:26;;;;;;;5.65;2.30;;;11.70;98.30;;;;;;5057057;28;20376;-75
2024/02/14 10:47:53;;;;;;;6.13;2.47;;;11.80;98.90;;;;;;5057036;28;20029;-76
2024/02/14 10:50:22;;;;;;;4.57;2.50;;;11.90;99.20;;;;;;5056732;28;20052;-75
2024/02/14 10:52:48;;;;;;;6.97;2.97;;;12.00;99.10;;;;;;5056661;28;20033;-74
2024/02/14 10:55:16;;;;;;;5.97;2.92;;;12.10;99.10;;;;;;5056473;28;20481;-75
2024/02/14 10:57:45;;;;;;;6.20;2.78;;;12.20;98.70;;;;;;5054989;28;20032;-76
2024/02/14 11:00:14;;;;;;;5.18;2.50;;;12.20;98.20;;;;;;5056337;28;20036;-76
2024/02/14 11:02:41;;;;;;;4.28;2.80;;;12.30;98.30;;;;;;5056409;28;20044;-74
2024/02/14 11:05:14;;;;;;;8.85;4.28;;;12.30;98.30;;;;;;5056361;28;20020;-74
2024/02/14 11:07:45;;;;;;;6.80;4.20;;;12.40;98.30;;;;;;5056208;28;20108;-74
2024/02/14 11:10:15;;;;;;;8.75;4.45;;;12.50;98.30;;;;;;5054966;28;20059;-75
2024/02/14 11:12:41;;;;;;;5.90;4.10;;;12.60;97.70;;;;;;5056370;28;20089;-75
2024/02/14 11:15:10;;;;;;;10.43;4.55;;;12.60;97.70;;;;;;5056368;28;20029;-76
2024/02/14 11:17:39;;;;;;;5.70;4.28;;;12.70;98.10;;;;;;5056061;28;20365;-76
2024/02/14 11:20:15;;;;;;;5.15;3.70;;;12.70;97.70;;;;;;5055860;28;20036;-75
2024/02/14 11:22:54;;;;;;;5.45;4.10;;;12.80;97.90;;;;;;5056376;28;20047;-75
2024/02/14 11:25:29;;;;;;;10.20;5.28;;;12.90;98.00;;;;;;5056367;28;20029;-73
2024/02/14 11:27:55;;;;;;;11.57;4.47;;;12.90;97.80;;;;;;5055756;28;20085;-76
2024/02/14 11:30:29;;;;;;;5.55;3.88;;;13.00;97.30;;;;;;5055849;28;20020;-74
2024/02/14 11:32:55;;;;;;;6.15;4.03;;;13.00;97.30;;;;;;5056148;28;20041;-75
2024/02/14 11:35:21;;;;;;;9.00;4.35;;;13.10;97.00;;;;;;5056254;28;20079;-75
2024/02/14 11:37:53;;;;;;;5.78;4.13;;;13.20;97.10;;;;;;5056112;28;20025;-75
2024/02/14 11:40:20;;;;;;;6.20;4.35;;;13.20;96.70;;;;;;5055756;28;20052;-76
2024/02/14 11:42:47;;;;;;;6.88;4.68;;;13.30;96.60;;;;;;5055881;28;20017;-75
2024/02/14 11:45:13;;;;;;;8.10;4.32;;;13.40;96.50;;;;;;5055806;28;20085;-75
2024/02/14 11:47:39;;;;;;;6.07;3.97;;;13.40;96.50;;;;;;5055596;28;20104;-75
2024/02/14 11:50:06;;;;;;;7.78;4.25;;;13.50;96.60;;;;;;5055342;28;20049;-75
2024/02/14 11:52:32;;;;;;;6.07;4.20;;;13.50;96.40;;;;;;5054092;28;20508;-75
2024/02/14 11:54:59;;;;;;;6.70;4.50;;;13.60;96.10;;;;;;5054282;28;20484;-75
2024/02/14 11:57:26;;;;;;;6.95;4.45;;;13.70;95.90;;;;;;5055479;28;20112;-74
2024/02/14 11:59:53;;;;;;;6.35;4.05;;;13.80;95.90;;;;;;5055320;28;20400;-72
2024/02/14 12:02:20;;;;;;;10.63;5.47;;;13.80;95.70;;;;;;5054226;28;20389;-75
2024/02/14 12:04:50;;;;;;;6.78;4.97;;;13.90;95.40;;;;;;5055472;28;20029;-75
2024/02/14 12:07:16;;;;;;;8.43;5.22;;;13.90;94.90;;;;;;5055320;28;20025;-74
2024/02/14 12:09:43;;;;;;;7.15;4.43;;;14.00;94.90;;;;;;5055588;28;20027;-75
2024/02/14 12:12:09;;;;;;;11.73;4.95;;;14.00;94.80;;;;;;5055240;28;20519;-74
2024/02/14 12:14:34;;;;;;;7.32;5.03;;;14.10;94.60;;;;;;5055073;28;20037;-75
2024/02/14 12:17:02;;;;;;;9.35;5.25;;;14.10;94.50;;;;;;5054995;28;20068;-75
2024/02/14 12:19:28;;;;;;;9.80;5.00;;;14.20;94.60;;;;;;5055103;28;20108;-76
2024/02/14 12:21:56;;;;;;;5.28;4.50;;;14.20;94.50;;;;;;5055192;28;20663;-75
2024/02/14 12:24:23;;;;;;;9.10;4.70;;;14.30;94.40;;;;;;5055113;28;20063;-76
2024/02/14 12:26:52;;;;;;;6.50;4.30;;;14.30;94.30;;;;;;5054759;28;20037;-74
2024/02/14 12:29:19;;;;;;;6.03;4.18;;;14.30;93.70;;;;;;5054856;28;20027;-75
2024/02/14 12:31:44;;;;;;;6.30;3.85;;;14.40;93.30;;;;;;5054687;28;20040;-75
2024/02/14 12:34:11;;;;;;;7.57;4.40;;;14.40;92.90;;;;;;5054571;28;20025;-75
2024/02/14 12:36:38;;;;;;;8.70;4.85;;;14.50;92.80;;;;;;5054736;28;20049;-76
2024/02/14 12:39:03;;;;;;;6.05;4.03;;;14.60;92.80;;;;;;5053322;28;20092;-75
2024/02/14 12:41:30;;;;;;;5.68;4.03;;;14.60;92.60;;;;;;5054204;28;20446;-74
2024/02/14 12:43:57;;;;;;;7.25;4.50;;;14.60;92.70;;;;;;5054284;28;20040;-75
2024/02/14 12:46:22;;;;;;;6.55;4.25;;;14.70;92.90;;;;;;5054467;28;20051;-75